createdAt,value
2022-11-27T00:02:22.807Z,11.60
2022-11-27T00:04:49.388Z,11.59
2022-11-27T00:07:15.984Z,11.59
2022-11-27T00:09:42.716Z,11.60
2022-11-27T00:12:09.299Z,11.60
2022-11-27T00:14:35.829Z,11.61
2022-11-27T00:17:02.342Z,11.61
2022-11-27T00:19:29.216Z,11.62
2022-11-27T00:21:55.721Z,11.61
2022-11-27T00:24:23.323Z,11.62
2022-11-27T00:26:50.400Z,11.61
2022-11-27T00:29:16.879Z,11.61
2022-11-27T00:31:43.436Z,11.60
2022-11-27T00:34:10.545Z,11.63
2022-11-27T00:36:37.582Z,11.62
2022-11-27T00:39:04.175Z,11.61
2022-11-27T00:41:30.897Z,11.64
2022-11-27T00:43:57.669Z,11.63
2022-11-27T00:46:29.076Z,11.63
2022-11-27T00:48:58.257Z,11.63
2022-11-27T00:51:25.408Z,11.63
2022-11-27T00:53:52.640Z,11.64
2022-11-27T00:56:23.426Z,11.61
2022-11-27T00:58:50.477Z,11.63
2022-11-27T01:01:23.175Z,11.64
2022-11-27T01:03:49.913Z,11.59
2022-11-27T01:06:18.560Z,11.61
2022-11-27T01:08:45.664Z,11.62
2022-11-27T01:11:17.805Z,11.61
2022-11-27T01:13:45.114Z,11.64
2022-11-27T01:16:17.538Z,11.62
2022-11-27T01:18:46.526Z,11.62
2022-11-27T01:21:17.589Z,11.64
2022-11-27T01:23:44.664Z,11.65
2022-11-27T01:26:11.864Z,11.65
2022-11-27T01:28:42.350Z,11.65
2022-11-27T01:31:13.072Z,11.65
2022-11-27T01:33:39.761Z,11.66
2022-11-27T01:36:08.460Z,11.67
2022-11-27T01:38:35.059Z,11.67
2022-11-27T01:41:05.370Z,11.67
2022-11-27T01:43:45.449Z,11.67
2022-11-27T01:46:38.277Z,11.68
2022-11-27T01:49:21.013Z,11.68
2022-11-27T01:51:52.222Z,11.69
2022-11-27T01:54:21.858Z,11.70
2022-11-27T01:56:52.202Z,11.70
2022-11-27T01:59:19.373Z,11.70
2022-11-27T02:01:45.956Z,11.70
2022-11-27T02:04:12.611Z,11.71
2022-11-27T02:06:39.308Z,11.72
2022-11-27T02:09:05.986Z,11.74
2022-11-27T02:11:51.218Z,11.73
2022-11-27T02:14:39.954Z,11.71
2022-11-27T02:17:21.797Z,11.72
2022-11-27T02:20:06.530Z,11.74
2022-11-27T02:23:05.930Z,11.75
2022-11-27T02:26:10.023Z,11.75
2022-11-27T02:29:06.449Z,11.77
2022-11-27T02:32:02.300Z,11.77
2022-11-27T02:34:56.556Z,11.78
2022-11-27T02:37:47.586Z,11.77
2022-11-27T02:40:32.008Z,11.78
2022-11-27T02:42:58.465Z,11.80
2022-11-27T02:45:39.636Z,11.79
2022-11-27T02:48:08.205Z,11.81
2022-11-27T02:50:38.005Z,11.81
2022-11-27T02:53:12.327Z,11.82
2022-11-27T02:55:41.222Z,11.82
2022-11-27T02:58:13.574Z,11.82
2022-11-27T03:00:42.070Z,11.82
2022-11-27T03:03:13.099Z,11.83
2022-11-27T03:05:42.244Z,11.82
2022-11-27T03:08:19.259Z,11.83
2022-11-27T03:10:59.234Z,11.84
2022-11-27T03:13:26.107Z,11.84
2022-11-27T03:16:07.989Z,11.84
2022-11-27T03:18:42.825Z,11.84
2022-11-27T03:21:30.670Z,11.84
2022-11-27T03:23:58.228Z,11.85
2022-11-27T03:26:25.763Z,11.85
2022-11-27T03:28:53.863Z,11.85
2022-11-27T03:31:21.223Z,11.85
2022-11-27T03:33:47.754Z,11.85
2022-11-27T03:36:16.459Z,11.86
2022-11-27T03:38:44.856Z,11.85
2022-11-27T03:41:28.206Z,11.84
2022-11-27T03:44:33.516Z,11.85
2022-11-27T03:47:18.836Z,11.85
2022-11-27T03:50:03.459Z,11.87
2022-11-27T03:52:56.874Z,11.83
2022-11-27T03:55:28.565Z,11.83
2022-11-27T03:58:00.419Z,11.79
2022-11-27T04:00:32.378Z,11.78
2022-11-27T04:02:59.121Z,11.76
2022-11-27T04:05:25.662Z,11.77
2022-11-27T04:07:52.226Z,11.77
2022-11-27T04:10:18.870Z,11.75
2022-11-27T04:12:45.377Z,11.73
2022-11-27T04:15:12.716Z,11.70
2022-11-27T04:17:39.548Z,11.68
2022-11-27T04:20:07.198Z,11.64
2022-11-27T04:22:33.731Z,11.60
2022-11-27T04:25:00.201Z,11.59
2022-11-27T04:27:27.502Z,11.55
2022-11-27T04:29:53.999Z,11.53
2022-11-27T04:32:20.573Z,11.51
2022-11-27T04:34:47.038Z,11.50
2022-11-27T04:37:13.865Z,11.48
2022-11-27T04:39:40.315Z,11.47
2022-11-27T04:42:06.876Z,11.46
2022-11-27T04:44:33.458Z,11.45
2022-11-27T04:47:00.074Z,11.46
2022-11-27T04:49:26.586Z,11.46
2022-11-27T04:51:53.113Z,11.46
2022-11-27T04:54:19.648Z,11.44
2022-11-27T04:56:46.254Z,11.43
2022-11-27T04:59:12.734Z,11.42
2022-11-27T05:01:39.223Z,11.41
2022-11-27T05:04:05.705Z,11.39
2022-11-27T05:06:32.196Z,11.37
2022-11-27T05:09:02.034Z,11.35
2022-11-27T05:11:30.617Z,11.33
2022-11-27T05:14:16.744Z,11.31
2022-11-27T05:16:46.163Z,11.28
2022-11-27T05:19:14.363Z,11.27
2022-11-27T05:21:41.659Z,11.26
2022-11-27T05:24:08.912Z,11.24
2022-11-27T05:26:35.481Z,11.22
2022-11-27T05:29:02.117Z,11.20
2022-11-27T05:31:28.856Z,11.17
2022-11-27T05:33:55.455Z,11.17
2022-11-27T05:36:22.025Z,11.15
2022-11-27T05:38:48.535Z,11.13
2022-11-27T05:41:15.587Z,11.13
2022-11-27T05:43:42.292Z,11.10
2022-11-27T05:46:11.435Z,11.06
2022-11-27T05:48:38.011Z,11.06
2022-11-27T05:51:05.359Z,11.04
2022-11-27T05:53:32.567Z,11.03
2022-11-27T05:56:10.736Z,11.02
2022-11-27T05:58:38.195Z,11.01
2022-11-27T06:01:05.545Z,11.00
2022-11-27T06:03:32.245Z,11.00
2022-11-27T06:05:58.823Z,10.98
2022-11-27T06:08:25.297Z,10.98
2022-11-27T06:10:51.833Z,10.97
2022-11-27T06:13:18.368Z,10.96
2022-11-27T06:15:44.840Z,10.96
2022-11-27T06:18:12.297Z,10.96
2022-11-27T06:20:43.701Z,10.96
2022-11-27T06:23:10.726Z,10.96
2022-11-27T06:25:37.216Z,10.96
2022-11-27T06:28:03.833Z,10.94
2022-11-27T06:30:30.301Z,10.93
2022-11-27T06:32:56.785Z,10.92
2022-11-27T06:35:24.172Z,10.91
2022-11-27T06:37:50.654Z,10.90
2022-11-27T06:40:17.236Z,10.88
2022-11-27T06:42:43.730Z,10.86
2022-11-27T06:45:10.786Z,10.86
2022-11-27T06:47:37.307Z,10.85
2022-11-27T06:50:03.892Z,10.83
2022-11-27T06:52:32.762Z,10.82
2022-11-27T06:55:02.390Z,10.80
2022-11-27T06:57:28.873Z,10.77
2022-11-27T06:59:55.336Z,10.76
2022-11-27T07:02:21.871Z,10.74
2022-11-27T07:04:48.398Z,10.72
2022-11-27T07:07:15.830Z,10.68
2022-11-27T07:09:42.439Z,10.66
2022-11-27T07:12:09.216Z,10.62
2022-11-27T07:14:35.727Z,10.61
2022-11-27T07:17:02.288Z,10.57
2022-11-27T07:19:28.805Z,10.58
2022-11-27T07:21:55.361Z,10.53
2022-11-27T07:24:22.058Z,10.52
2022-11-27T07:26:48.626Z,10.51
2022-11-27T07:29:15.183Z,10.50
2022-11-27T07:31:42.000Z,10.47
2022-11-27T07:34:15.030Z,10.45
2022-11-27T07:36:42.655Z,10.44
2022-11-27T07:39:09.137Z,10.42
2022-11-27T07:41:35.615Z,10.40
2022-11-27T07:44:03.104Z,10.37
2022-11-27T07:46:30.477Z,10.33
2022-11-27T07:48:57.045Z,10.31
2022-11-27T07:51:23.725Z,10.29
2022-11-27T07:53:52.860Z,10.27
2022-11-27T07:56:20.329Z,10.25
2022-11-27T07:58:47.335Z,10.25
2022-11-27T08:01:16.950Z,10.25
2022-11-27T08:03:44.389Z,10.22
2022-11-27T08:06:22.815Z,10.21
2022-11-27T08:08:50.275Z,10.20
2022-11-27T08:11:26.283Z,10.16
2022-11-27T08:13:58.009Z,10.15
2022-11-27T08:16:24.868Z,10.14
2022-11-27T08:18:51.465Z,10.14
2022-11-27T08:21:17.998Z,10.14
2022-11-27T08:23:44.651Z,10.13
2022-11-27T08:26:12.310Z,10.11
2022-11-27T08:28:39.594Z,10.12
2022-11-27T08:31:08.348Z,10.13
2022-11-27T08:33:35.167Z,10.11
2022-11-27T08:36:02.534Z,10.09
2022-11-27T08:38:29.011Z,10.11
2022-11-27T08:41:00.665Z,10.10
2022-11-27T08:43:28.051Z,10.12
2022-11-27T08:45:54.979Z,10.10
2022-11-27T08:48:22.364Z,10.12
2022-11-27T08:50:49.954Z,10.09
2022-11-27T08:53:17.950Z,10.09
2022-11-27T08:55:45.210Z,10.10
2022-11-27T08:58:11.811Z,10.10
2022-11-27T09:00:38.964Z,10.09
2022-11-27T09:03:06.057Z,10.11
2022-11-27T09:05:32.924Z,10.10
2022-11-27T09:08:02.392Z,10.12
2022-11-27T09:10:29.056Z,10.14
2022-11-27T09:12:56.448Z,10.15
2022-11-27T09:15:23.224Z,10.18
2022-11-27T09:17:50.081Z,10.18
2022-11-27T09:20:16.581Z,10.20
2022-11-27T09:22:43.068Z,10.23
2022-11-27T09:25:09.891Z,10.24
2022-11-27T09:27:37.415Z,10.27
2022-11-27T09:30:07.572Z,10.28
2022-11-27T09:32:34.160Z,10.30
2022-11-27T09:35:00.687Z,10.30
2022-11-27T09:37:27.239Z,10.32
2022-11-27T09:39:53.760Z,10.34
2022-11-27T09:42:44.058Z,10.34
2022-11-27T09:45:17.353Z,10.38
2022-11-27T09:47:50.311Z,10.41
2022-11-27T09:50:21.329Z,10.40
2022-11-27T09:53:01.334Z,10.43
2022-11-27T09:55:42.102Z,10.43
2022-11-27T09:58:17.925Z,10.47
2022-11-27T10:00:45.402Z,10.49
2022-11-27T10:03:18.798Z,10.52
2022-11-27T10:05:54.982Z,10.56
2022-11-27T10:08:27.543Z,10.60
2022-11-27T10:11:18.376Z,10.61
2022-11-27T10:14:02.741Z,10.65
2022-11-27T10:16:44.139Z,10.70
2022-11-27T10:19:28.114Z,10.71
2022-11-27T10:22:31.344Z,10.76
2022-11-27T10:25:12.960Z,10.82
2022-11-27T10:28:02.741Z,10.85
2022-11-27T10:30:32.316Z,10.88
2022-11-27T10:33:00.653Z,10.90
2022-11-27T10:35:32.601Z,10.96
2022-11-27T10:38:22.333Z,10.97
2022-11-27T10:41:07.765Z,11.01
2022-11-27T10:43:36.496Z,11.06
2022-11-27T10:46:12.813Z,11.10
2022-11-27T10:48:39.468Z,11.12
2022-11-27T10:51:18.839Z,11.16
2022-11-27T10:53:49.049Z,11.17
2022-11-27T10:56:36.636Z,11.20
2022-11-27T10:59:09.241Z,11.23
2022-11-27T11:01:48.259Z,11.26
2022-11-27T11:04:40.481Z,11.28
2022-11-27T11:07:25.074Z,11.32
2022-11-27T11:09:52.067Z,11.34
2022-11-27T11:12:21.643Z,11.37
2022-11-27T11:14:57.005Z,11.37
2022-11-27T11:17:27.730Z,11.40
2022-11-27T11:19:54.357Z,11.42
2022-11-27T11:22:21.372Z,11.45
2022-11-27T11:24:50.143Z,11.47
2022-11-27T11:27:23.343Z,11.50
2022-11-27T11:29:53.332Z,11.53
2022-11-27T11:32:19.832Z,11.57
2022-11-27T11:34:55.007Z,11.59
2022-11-27T11:37:33.511Z,11.64
2022-11-27T11:40:05.088Z,11.67
2022-11-27T11:42:34.292Z,11.68
2022-11-27T11:45:13.442Z,11.73
2022-11-27T11:47:51.712Z,11.78
2022-11-27T11:50:34.585Z,11.83
2022-11-27T11:53:32.124Z,11.81
2022-11-27T11:56:06.437Z,11.80
2022-11-27T11:58:42.970Z,11.81
2022-11-27T12:01:27.493Z,11.81
2022-11-27T12:04:02.234Z,11.84
2022-11-27T12:06:55.454Z,11.86
2022-11-27T12:09:57.497Z,11.93
2022-11-27T12:12:43.787Z,11.97
2022-11-27T12:15:24.397Z,12.01
2022-11-27T12:18:21.438Z,12.06
2022-11-27T12:20:53.815Z,12.09
2022-11-27T12:23:57.581Z,12.13
2022-11-27T12:26:35.935Z,12.13
2022-11-27T12:29:08.510Z,12.14
2022-11-27T12:31:47.296Z,12.16
2022-11-27T12:34:23.260Z,12.18
2022-11-27T12:36:59.212Z,12.20
2022-11-27T12:39:32.791Z,12.21
2022-11-27T12:42:06.850Z,12.22
2022-11-27T12:44:47.370Z,12.22
2022-11-27T12:47:40.103Z,12.23
2022-11-27T12:50:38.311Z,12.24
2022-11-27T12:53:30.933Z,12.25
2022-11-27T12:56:09.464Z,12.25
2022-11-27T12:58:40.561Z,12.27
2022-11-27T13:01:12.861Z,12.26
2022-11-27T13:03:48.777Z,12.25
2022-11-27T13:06:21.336Z,12.27
2022-11-27T13:08:52.267Z,12.28
2022-11-27T13:11:23.883Z,12.27
2022-11-27T13:13:57.228Z,12.29
2022-11-27T13:16:34.514Z,12.30
2022-11-27T13:19:03.701Z,12.29
2022-11-27T13:21:33.620Z,12.28
2022-11-27T13:24:04.235Z,12.28
2022-11-27T13:26:35.624Z,12.28
2022-11-27T13:29:08.172Z,12.28
2022-11-27T13:31:39.173Z,12.26
2022-11-27T13:34:18.397Z,12.27
2022-11-27T13:36:50.504Z,12.28
2022-11-27T13:39:41.945Z,12.26
2022-11-27T13:42:11.551Z,12.28
2022-11-27T13:44:43.445Z,12.26
2022-11-27T13:47:17.643Z,12.27
2022-11-27T13:49:45.371Z,12.25
2022-11-27T13:52:20.647Z,12.24
2022-11-27T13:55:01.633Z,12.23
2022-11-27T13:57:30.169Z,12.21
2022-11-27T14:00:05.216Z,12.21
2022-11-27T14:02:51.222Z,12.19
2022-11-27T14:05:21.939Z,12.16
2022-11-27T14:07:55.217Z,12.15
2022-11-27T14:10:28.238Z,12.11
2022-11-27T14:13:09.961Z,12.10
2022-11-27T14:15:37.754Z,12.09
2022-11-27T14:18:10.736Z,12.07
2022-11-27T14:20:47.874Z,12.04
2022-11-27T14:23:14.596Z,12.02
2022-11-27T14:25:41.430Z,11.99
2022-11-27T14:28:17.279Z,11.98
2022-11-27T14:30:48.191Z,11.96
2022-11-27T14:33:20.643Z,11.93
2022-11-27T14:35:53.095Z,11.93
2022-11-27T14:38:20.338Z,11.92
2022-11-27T14:40:48.154Z,11.88
2022-11-27T14:43:28.738Z,11.87
2022-11-27T14:45:58.899Z,11.83
2022-11-27T14:48:27.572Z,11.80
2022-11-27T14:50:55.784Z,11.78
2022-11-27T14:53:25.467Z,11.74
2022-11-27T14:55:56.737Z,11.73
2022-11-27T14:58:26.916Z,11.70
2022-11-27T15:01:06.546Z,11.64
2022-11-27T15:03:34.155Z,11.62
2022-11-27T15:06:04.236Z,11.56
2022-11-27T15:08:35.311Z,11.52
2022-11-27T15:11:04.880Z,11.46
2022-11-27T15:13:33.573Z,11.44
2022-11-27T15:16:14.390Z,11.40
2022-11-27T15:18:42.536Z,11.36
2022-11-27T15:21:17.857Z,11.30
2022-11-27T15:23:46.545Z,11.27
2022-11-27T15:26:19.940Z,11.24
2022-11-27T15:28:54.204Z,11.19
2022-11-27T15:31:31.362Z,11.15
2022-11-27T15:34:01.382Z,11.10
2022-11-27T15:36:34.744Z,11.07
2022-11-27T15:39:23.082Z,11.02
2022-11-27T15:42:01.113Z,10.96
2022-11-27T15:44:32.079Z,10.93
2022-11-27T15:47:01.567Z,10.89
2022-11-27T15:49:29.221Z,10.86
2022-11-27T15:51:57.356Z,10.82
2022-11-27T15:54:24.886Z,10.77
2022-11-27T15:56:51.856Z,10.74
2022-11-27T15:59:20.752Z,10.71
2022-11-27T16:01:48.075Z,10.68
2022-11-27T16:04:14.659Z,10.65
2022-11-27T16:06:41.216Z,10.63
2022-11-27T16:09:07.768Z,10.59
2022-11-27T16:11:34.770Z,10.59
2022-11-27T16:14:01.495Z,10.56
2022-11-27T16:16:28.292Z,10.53
2022-11-27T16:19:02.106Z,10.51
2022-11-27T16:21:30.143Z,10.48
2022-11-27T16:24:05.432Z,10.44
2022-11-27T16:26:33.054Z,10.42
2022-11-27T16:28:59.640Z,10.42
2022-11-27T16:31:27.316Z,10.41
2022-11-27T16:33:53.895Z,10.36
2022-11-27T16:36:21.529Z,10.34
2022-11-27T16:38:49.364Z,10.32
2022-11-27T16:41:17.811Z,10.29
2022-11-27T16:43:51.427Z,10.28
2022-11-27T16:46:23.798Z,10.26
2022-11-27T16:48:50.591Z,10.23
2022-11-27T16:51:23.083Z,10.19
2022-11-27T16:53:51.977Z,10.17
2022-11-27T16:56:20.539Z,10.17
2022-11-27T16:58:47.614Z,10.15
2022-11-27T17:01:23.101Z,10.13
2022-11-27T17:03:50.401Z,10.12
2022-11-27T17:06:22.719Z,10.10
2022-11-27T17:08:49.457Z,10.10
2022-11-27T17:11:21.854Z,10.08
2022-11-27T17:13:49.064Z,10.06
2022-11-27T17:16:16.616Z,10.05
2022-11-27T17:18:45.573Z,10.02
2022-11-27T17:21:18.362Z,10.01
2022-11-27T17:23:46.931Z,10.00
2022-11-27T17:26:15.945Z,9.98
2022-11-27T17:28:42.488Z,9.98
2022-11-27T17:31:11.247Z,9.96
2022-11-27T17:33:38.120Z,9.96
2022-11-27T17:36:05.193Z,9.95
2022-11-27T17:38:31.670Z,9.93
2022-11-27T17:41:02.632Z,9.92
2022-11-27T17:43:30.626Z,9.89
2022-11-27T17:45:58.230Z,9.90
2022-11-27T17:48:25.382Z,9.89
2022-11-27T17:50:52.252Z,9.88
2022-11-27T17:53:19.527Z,9.86
2022-11-27T17:55:46.421Z,9.84
2022-11-27T17:58:13.012Z,9.82
2022-11-27T18:00:40.211Z,9.82
2022-11-27T18:03:07.613Z,9.81
2022-11-27T18:05:38.424Z,9.78
2022-11-27T18:08:05.708Z,9.77
2022-11-27T18:10:34.024Z,9.76
2022-11-27T18:13:00.743Z,9.74
2022-11-27T18:15:27.329Z,9.72
2022-11-27T18:17:54.057Z,9.74
2022-11-27T18:20:20.772Z,9.74
2022-11-27T18:22:47.450Z,9.72
2022-11-27T18:25:13.953Z,9.72
2022-11-27T18:27:41.429Z,9.70
2022-11-27T18:30:08.754Z,9.68
2022-11-27T18:32:38.720Z,9.66
2022-11-27T18:35:06.677Z,9.65
2022-11-27T18:37:34.980Z,9.62
2022-11-27T18:40:01.723Z,9.62
2022-11-27T18:42:30.364Z,9.60
2022-11-27T18:44:57.053Z,9.56
2022-11-27T18:47:23.749Z,9.55
2022-11-27T18:49:50.330Z,9.53
2022-11-27T18:52:17.321Z,9.50
2022-11-27T18:54:44.339Z,9.47
2022-11-27T18:57:11.270Z,9.47
2022-11-27T18:59:38.585Z,9.47
2022-11-27T19:02:05.661Z,9.44
2022-11-27T19:04:36.586Z,9.41
2022-11-27T19:07:03.456Z,9.40
2022-11-27T19:09:30.054Z,9.39
2022-11-27T19:11:56.602Z,9.37
2022-11-27T19:14:23.185Z,9.35
2022-11-27T19:16:50.828Z,9.33
2022-11-27T19:19:53.992Z,9.31
2022-11-27T19:22:06.546Z,9.28
2022-11-27T19:24:33.181Z,9.27
2022-11-27T19:26:59.864Z,9.27
2022-11-27T19:29:26.354Z,9.25
2022-11-27T19:31:55.309Z,9.28
2022-11-27T19:34:21.976Z,9.30
2022-11-27T19:36:48.686Z,9.31
2022-11-27T19:39:15.770Z,9.31
2022-11-27T19:41:43.999Z,9.34
2022-11-27T19:44:12.122Z,9.33
2022-11-27T19:46:39.191Z,9.33
2022-11-27T19:49:12.473Z,9.33
2022-11-27T19:51:40.613Z,9.30
2022-11-27T19:54:10.399Z,9.29
2022-11-27T19:56:38.868Z,9.28
2022-11-27T19:59:06.363Z,9.26
2022-11-27T20:01:33.031Z,9.26
2022-11-27T20:03:59.996Z,9.24
2022-11-27T20:06:26.981Z,9.24
2022-11-27T20:09:00.745Z,9.23
2022-11-27T20:11:33.891Z,9.23
2022-11-27T20:14:02.071Z,9.22
2022-11-27T20:16:28.865Z,9.21
2022-11-27T20:18:55.849Z,9.20
2022-11-27T20:21:24.480Z,9.19
2022-11-27T20:23:52.768Z,9.17
2022-11-27T20:26:22.317Z,9.17
2022-11-27T20:28:49.810Z,9.16
2022-11-27T20:31:23.905Z,9.13
2022-11-27T20:33:56.013Z,9.13
2022-11-27T20:36:24.200Z,9.13
2022-11-27T20:38:51.764Z,9.11
2022-11-27T20:41:20.689Z,9.11
2022-11-27T20:43:47.718Z,9.09
2022-11-27T20:46:16.056Z,9.09
2022-11-27T20:48:49.509Z,9.07
2022-11-27T20:51:19.417Z,9.09
2022-11-27T20:53:47.346Z,9.08
2022-11-27T20:56:16.613Z,9.04
2022-11-27T20:58:44.383Z,9.06
2022-11-27T21:01:18.165Z,9.06
2022-11-27T21:03:46.230Z,9.02
2022-11-27T21:06:13.816Z,9.04
2022-11-27T21:08:40.804Z,9.02
2022-11-27T21:11:16.367Z,9.00
2022-11-27T21:13:43.042Z,9.00
2022-11-27T21:16:14.186Z,9.00
2022-11-27T21:18:40.801Z,8.99
2022-11-27T21:21:12.574Z,8.98
2022-11-27T21:23:41.282Z,8.98
2022-11-27T21:26:08.948Z,8.98
2022-11-27T21:28:35.490Z,8.95
2022-11-27T21:31:10.748Z,8.93
2022-11-27T21:33:38.011Z,8.95
2022-11-27T21:36:05.379Z,8.91
2022-11-27T21:38:32.400Z,8.90
2022-11-27T21:40:59.352Z,8.89
2022-11-27T21:43:26.100Z,8.87
2022-11-27T21:45:52.812Z,8.85
2022-11-27T21:48:20.526Z,8.84
2022-11-27T21:50:47.016Z,8.82
2022-11-27T21:53:13.529Z,8.82
2022-11-27T21:55:41.555Z,8.79
2022-11-27T21:58:08.855Z,8.78
2022-11-27T22:00:36.814Z,8.79
2022-11-27T22:03:03.800Z,8.78
2022-11-27T22:05:30.668Z,8.78
2022-11-27T22:07:57.218Z,8.77
2022-11-27T22:10:23.886Z,8.78
2022-11-27T22:12:50.382Z,8.78
2022-11-27T22:15:16.972Z,8.79
2022-11-27T22:17:43.535Z,8.79
2022-11-27T22:20:10.413Z,8.81
2022-11-27T22:22:36.989Z,8.82
2022-11-27T22:25:04.730Z,8.82
2022-11-27T22:27:31.517Z,8.82
2022-11-27T22:29:58.001Z,8.82
2022-11-27T22:32:24.761Z,8.82
2022-11-27T22:34:51.744Z,8.81
2022-11-27T22:37:18.241Z,8.80
2022-11-27T22:39:44.802Z,8.81
2022-11-27T22:42:12.270Z,8.82
2022-11-27T22:44:39.344Z,8.80
2022-11-27T22:47:06.004Z,8.81
2022-11-27T22:49:32.529Z,8.82
2022-11-27T22:51:59.155Z,8.82
2022-11-27T22:54:25.781Z,8.81
2022-11-27T22:56:52.292Z,8.81
2022-11-27T22:59:34.844Z,8.81
2022-11-27T23:02:02.713Z,8.80
2022-11-27T23:04:29.295Z,8.80
2022-11-27T23:06:55.823Z,8.79
2022-11-27T23:09:22.608Z,8.77
2022-11-27T23:11:49.542Z,8.77
2022-11-27T23:14:16.639Z,8.78
2022-11-27T23:16:43.533Z,8.75
2022-11-27T23:19:10.928Z,8.72
2022-11-27T23:21:38.757Z,8.70
2022-11-27T23:24:06.855Z,8.67
2022-11-27T23:26:34.165Z,8.68
2022-11-27T23:29:00.850Z,8.67
2022-11-27T23:31:31.145Z,8.69
2022-11-27T23:33:58.809Z,8.69
2022-11-27T23:36:25.583Z,8.68
2022-11-27T23:38:52.166Z,8.66
2022-11-27T23:41:21.494Z,8.64
2022-11-27T23:43:48.852Z,8.63
2022-11-27T23:46:17.203Z,8.63
2022-11-27T23:48:44.683Z,8.61
2022-11-27T23:51:31.599Z,8.60
2022-11-27T23:53:59.327Z,8.59
2022-11-27T23:56:31.816Z,8.58
2022-11-27T23:58:59.401Z,8.56
